createdAt,value
2023-05-05T00:00:16.158Z,22.70
2023-05-05T00:02:47.639Z,9.30
2023-05-05T00:05:19.446Z,5.60
2023-05-05T00:07:50.995Z,5.10
2023-05-05T00:10:22.428Z,5.40
2023-05-05T00:12:53.928Z,5.90
2023-05-05T00:15:25.802Z,5.60
2023-05-05T00:17:57.216Z,5.20
2023-05-05T00:20:28.838Z,5.40
2023-05-05T00:23:00.259Z,6.30
2023-05-05T00:25:31.677Z,6.30
2023-05-05T00:28:03.074Z,6.80
2023-05-05T00:30:34.860Z,7.30
2023-05-05T00:35:36.135Z,7.80
2023-05-05T00:40:38.074Z,9.10
2023-05-05T00:43:09.857Z,10.30
2023-05-05T00:48:14.440Z,9.00
2023-05-05T00:50:46.274Z,4.00
2023-05-05T00:53:17.708Z,4.60
2023-05-05T00:55:49.228Z,4.70
2023-05-05T00:58:20.595Z,3.90
2023-05-05T01:00:52.073Z,4.20
2023-05-05T01:03:23.646Z,4.70
2023-05-05T01:06:00.246Z,8.60
2023-05-05T01:08:38.525Z,8.60
2023-05-05T01:11:15.911Z,9.70
2023-05-05T01:13:54.833Z,10.50
2023-05-05T01:16:27.530Z,9.30
2023-05-05T01:19:02.285Z,9.50
2023-05-05T01:21:35.286Z,7.90
2023-05-05T01:24:28.498Z,7.50
2023-05-05T01:27:07.236Z,7.00
2023-05-05T01:29:49.287Z,6.20
2023-05-05T01:32:22.016Z,6.00
2023-05-05T01:34:57.671Z,6.20
2023-05-05T01:37:32.304Z,8.10
2023-05-05T01:40:06.492Z,8.50
2023-05-05T01:42:40.949Z,9.10
2023-05-05T01:45:14.638Z,8.00
2023-05-05T01:47:46.419Z,9.20
2023-05-05T01:50:18.125Z,9.30
2023-05-05T01:55:19.452Z,8.80
2023-05-05T02:00:21.858Z,8.10
2023-05-05T02:02:53.433Z,8.40
2023-05-05T02:07:56.560Z,8.10
2023-05-05T02:10:27.939Z,9.40
2023-05-05T02:12:59.317Z,9.50
2023-05-05T02:15:30.720Z,9.10
2023-05-05T02:18:07.821Z,10.10
2023-05-05T02:20:39.881Z,10.90
2023-05-05T02:23:11.256Z,10.60
2023-05-05T02:25:45.099Z,8.00
2023-05-05T02:28:18.694Z,8.20
2023-05-05T02:30:51.873Z,7.50
2023-05-05T02:33:23.355Z,8.20
2023-05-05T02:35:55.320Z,10.10
2023-05-05T02:38:29.658Z,8.60
2023-05-05T02:41:04.700Z,6.40
2023-05-05T02:43:36.244Z,8.00
2023-05-05T02:48:38.786Z,7.70
2023-05-05T02:51:10.435Z,6.40
2023-05-05T02:53:42.545Z,7.80
2023-05-05T02:56:19.694Z,7.00
2023-05-05T02:58:56.274Z,8.60
2023-05-05T03:01:38.570Z,8.00
2023-05-05T03:04:16.861Z,8.20
2023-05-05T03:06:55.637Z,7.70
2023-05-05T03:09:29.586Z,7.60
2023-05-05T03:12:04.090Z,9.10
2023-05-05T03:14:41.740Z,8.30
2023-05-05T03:17:14.183Z,8.20
2023-05-05T03:22:16.100Z,6.40
2023-05-05T03:24:53.984Z,7.40
2023-05-05T03:27:27.987Z,8.00
2023-05-05T03:30:00.191Z,8.00
2023-05-05T03:32:32.370Z,9.40
2023-05-05T03:37:36.300Z,10.80
2023-05-05T03:42:39.251Z,12.40
2023-05-05T03:45:11.967Z,13.40
2023-05-05T03:47:43.613Z,12.20
2023-05-05T03:50:15.280Z,10.70
2023-05-05T03:55:17.005Z,11.40
2023-05-05T03:57:48.473Z,11.10
2023-05-05T04:00:21.165Z,9.50
2023-05-05T04:02:52.855Z,10.40
2023-05-05T04:05:24.488Z,11.40
2023-05-05T04:07:58.872Z,12.10
2023-05-05T04:10:31.252Z,16.20
2023-05-05T04:13:05.049Z,11.10
2023-05-05T04:15:36.547Z,10.00
2023-05-05T04:18:08.232Z,9.70
2023-05-05T04:20:39.961Z,10.70
2023-05-05T04:23:12.202Z,10.60
2023-05-05T04:25:44.266Z,9.30
2023-05-05T04:28:16.171Z,8.80
2023-05-05T04:30:47.938Z,9.10
2023-05-05T04:35:50.312Z,8.90
2023-05-05T04:40:53.590Z,8.80
2023-05-05T04:45:58.080Z,9.00
2023-05-05T04:48:32.774Z,8.40
2023-05-05T04:51:08.456Z,8.00
2023-05-05T04:53:40.909Z,10.80
2023-05-05T04:56:12.378Z,10.70
2023-05-05T04:58:43.778Z,11.20
2023-05-05T05:01:15.416Z,11.70
2023-05-05T05:03:47.485Z,10.60
2023-05-05T05:06:19.083Z,11.70
2023-05-05T05:08:50.476Z,10.80
2023-05-05T05:11:22.316Z,15.10
2023-05-05T05:13:54.468Z,15.00
2023-05-05T05:18:56.307Z,15.10
2023-05-05T05:21:28.278Z,14.50
2023-05-05T05:24:00.126Z,17.00
2023-05-05T05:29:01.540Z,17.80
2023-05-05T05:31:34.677Z,18.90
2023-05-05T05:34:06.811Z,22.60
2023-05-05T05:39:08.846Z,29.60
2023-05-05T05:41:40.503Z,29.80
2023-05-05T05:46:42.269Z,17.20
2023-05-05T05:49:14.213Z,13.30
2023-05-05T05:54:15.508Z,9.90
2023-05-05T05:56:47.993Z,9.20
2023-05-05T05:59:19.427Z,5.40
2023-05-05T06:01:51.174Z,5.50
2023-05-05T06:04:23.253Z,5.30
2023-05-05T06:06:54.793Z,4.40
2023-05-05T06:09:27.283Z,4.20
2023-05-05T06:11:58.918Z,5.20
2023-05-05T06:14:30.611Z,4.70
2023-05-05T06:17:02.388Z,5.60
2023-05-05T06:19:34.802Z,5.50
2023-05-05T06:22:06.310Z,7.20
2023-05-05T06:24:38.363Z,8.10
2023-05-05T06:27:09.871Z,8.60
2023-05-05T06:29:41.915Z,6.70
2023-05-05T06:32:14.262Z,7.10
2023-05-05T06:34:47.649Z,6.50
2023-05-05T06:37:19.086Z,5.90
2023-05-05T06:39:51.112Z,6.00
2023-05-05T06:42:22.600Z,5.80
2023-05-05T06:44:56.191Z,6.70
2023-05-05T06:47:27.580Z,6.60
2023-05-05T06:49:59.193Z,7.30
2023-05-05T06:52:30.589Z,7.70
2023-05-05T06:55:01.984Z,7.60
2023-05-05T06:57:33.448Z,8.40
2023-05-05T07:00:10.004Z,6.60
2023-05-05T07:02:41.925Z,6.40
2023-05-05T07:05:13.964Z,5.60
2023-05-05T07:07:58.363Z,5.50
2023-05-05T07:10:31.755Z,4.10
2023-05-05T07:13:03.384Z,5.70
2023-05-05T07:15:35.103Z,6.20
2023-05-05T07:20:36.668Z,4.90
2023-05-05T07:23:08.245Z,3.70
2023-05-05T07:25:40.090Z,5.30
2023-05-05T07:28:11.924Z,4.40
2023-05-05T07:30:43.667Z,4.40
2023-05-05T07:35:46.234Z,3.60
2023-05-05T07:38:17.589Z,3.50
2023-05-05T07:40:49.093Z,3.90
2023-05-05T07:43:20.853Z,3.20
2023-05-05T07:48:22.438Z,2.80
2023-05-05T07:50:55.194Z,2.60
2023-05-05T07:53:27.200Z,3.10
2023-05-05T07:55:59.000Z,3.20
2023-05-05T07:58:30.311Z,2.70
2023-05-05T08:01:03.069Z,3.20
2023-05-05T08:03:35.027Z,2.20
2023-05-05T08:06:10.696Z,2.50
2023-05-05T08:08:42.737Z,3.60
2023-05-05T08:11:14.493Z,3.30
2023-05-05T08:16:15.869Z,2.90
2023-05-05T08:18:47.486Z,3.40
2023-05-05T08:21:18.820Z,2.90
2023-05-05T08:23:50.433Z,2.80
2023-05-05T08:28:55.354Z,2.80
2023-05-05T08:31:27.025Z,2.00
2023-05-05T08:33:58.405Z,2.50
2023-05-05T08:36:30.046Z,3.10
2023-05-05T08:41:31.271Z,3.10
2023-05-05T08:44:02.737Z,3.50
2023-05-05T08:46:34.776Z,2.40
2023-05-05T08:49:06.309Z,2.80
2023-05-05T08:51:42.600Z,2.40
2023-05-05T08:54:19.549Z,2.50
2023-05-05T08:56:51.633Z,2.50
2023-05-05T08:59:25.476Z,2.50
2023-05-05T09:01:57.145Z,2.90
2023-05-05T09:07:00.305Z,3.00
2023-05-05T09:09:31.764Z,2.50
2023-05-05T09:12:03.228Z,3.10
2023-05-05T09:17:27.457Z,2.30
2023-05-05T09:20:07.565Z,2.60
2023-05-05T09:22:39.862Z,2.10
2023-05-05T09:25:12.438Z,2.10
2023-05-05T09:27:46.193Z,2.30
2023-05-05T09:30:19.306Z,2.50
2023-05-05T09:32:51.126Z,2.20
2023-05-05T09:35:22.984Z,1.80
2023-05-05T09:37:54.558Z,2.00
2023-05-05T09:40:26.237Z,2.00
2023-05-05T09:43:04.880Z,2.20
2023-05-05T09:45:36.569Z,1.50
2023-05-05T09:48:10.625Z,2.30
2023-05-05T09:50:48.600Z,2.00
2023-05-05T09:53:20.209Z,2.60
2023-05-05T09:58:29.548Z,1.60
2023-05-05T10:01:02.046Z,1.80
2023-05-05T10:03:33.564Z,1.80
2023-05-05T10:06:08.083Z,1.80
2023-05-05T10:08:39.499Z,1.70
2023-05-05T10:13:42.238Z,2.10
2023-05-05T10:16:14.402Z,1.60
2023-05-05T10:18:47.042Z,1.50
2023-05-05T10:21:18.676Z,1.40
2023-05-05T10:23:52.167Z,1.40
2023-05-05T10:26:23.632Z,2.00
2023-05-05T10:31:30.073Z,1.50
2023-05-05T10:34:05.074Z,1.50
2023-05-05T10:36:36.822Z,1.60
2023-05-05T10:39:09.769Z,1.40
2023-05-05T10:41:41.672Z,1.40
2023-05-05T10:44:13.244Z,1.90
2023-05-05T10:49:19.010Z,1.30
2023-05-05T10:51:53.982Z,1.70
2023-05-05T10:54:40.110Z,1.50
2023-05-05T10:57:13.198Z,2.10
2023-05-05T10:59:47.868Z,1.20
2023-05-05T11:02:27.297Z,1.20
2023-05-05T11:05:17.045Z,1.40
2023-05-05T11:07:49.807Z,1.70
2023-05-05T11:10:23.699Z,1.50
2023-05-05T11:13:22.421Z,1.60
2023-05-05T11:15:54.511Z,1.30
2023-05-05T11:18:39.659Z,1.20
2023-05-05T11:21:18.080Z,1.10
2023-05-05T11:23:53.357Z,1.40
2023-05-05T11:26:53.475Z,1.00
2023-05-05T11:29:25.112Z,1.10
2023-05-05T11:34:52.616Z,1.50
2023-05-05T11:37:25.523Z,1.70
2023-05-05T11:40:09.940Z,1.40
2023-05-05T11:42:41.599Z,1.30
2023-05-05T11:45:25.023Z,1.30
2023-05-05T11:47:57.657Z,1.20
2023-05-05T11:50:29.317Z,1.20
2023-05-05T11:55:30.935Z,1.40
2023-05-05T11:58:02.597Z,1.20
2023-05-05T12:00:37.403Z,1.20
2023-05-05T12:03:09.236Z,1.40
2023-05-05T12:05:40.816Z,1.10
2023-05-05T12:08:12.584Z,1.40
2023-05-05T12:10:45.161Z,1.10
2023-05-05T12:13:24.115Z,1.30
2023-05-05T12:15:56.022Z,1.60
2023-05-05T12:18:27.719Z,1.50
2023-05-05T12:20:59.427Z,1.30
2023-05-05T12:26:02.996Z,1.40
2023-05-05T12:28:47.655Z,1.50
2023-05-05T12:31:19.073Z,1.20
2023-05-05T12:33:50.661Z,1.20
2023-05-05T12:36:22.116Z,1.20
2023-05-05T12:41:23.732Z,1.30
2023-05-05T12:43:58.960Z,1.00
2023-05-05T12:46:32.150Z,1.10
2023-05-05T12:49:05.983Z,1.10
2023-05-05T12:51:37.710Z,1.20
2023-05-05T12:54:10.358Z,1.20
2023-05-05T12:56:42.282Z,1.10
2023-05-05T12:59:14.503Z,1.20
2023-05-05T13:01:53.254Z,1.20
2023-05-05T13:04:25.485Z,1.50
2023-05-05T13:07:13.216Z,1.60
2023-05-05T13:09:44.574Z,1.20
2023-05-05T13:14:46.905Z,1.30
2023-05-05T13:17:18.520Z,1.40
2023-05-05T13:19:49.879Z,1.20
2023-05-05T13:25:07.230Z,1.20
2023-05-05T13:27:39.214Z,1.70
2023-05-05T13:30:12.896Z,1.40
2023-05-05T13:32:44.375Z,1.30
2023-05-05T13:37:48.794Z,1.90
2023-05-05T13:40:20.211Z,2.40
2023-05-05T13:42:51.839Z,1.80
2023-05-05T13:45:23.282Z,1.60
2023-05-05T13:47:54.877Z,1.80
2023-05-05T13:50:26.725Z,1.80
2023-05-05T13:52:58.086Z,1.40
2023-05-05T13:55:31.013Z,1.70
2023-05-05T13:58:02.518Z,1.70
2023-05-05T14:03:04.782Z,1.60
2023-05-05T14:05:37.653Z,1.40
2023-05-05T14:08:09.012Z,1.40
2023-05-05T14:10:40.908Z,1.30
2023-05-05T14:13:12.520Z,1.40
2023-05-05T14:15:44.054Z,1.10
2023-05-05T14:20:45.792Z,1.50
2023-05-05T14:23:17.697Z,1.30
2023-05-05T14:25:49.554Z,1.40
2023-05-05T14:28:21.066Z,1.20
2023-05-05T14:30:52.616Z,1.50
2023-05-05T14:33:24.161Z,1.30
2023-05-05T14:35:55.642Z,1.10
2023-05-05T14:40:57.311Z,1.00
2023-05-05T14:43:28.733Z,1.10
2023-05-05T14:48:32.332Z,1.40
2023-05-05T14:51:04.538Z,0.90
2023-05-05T14:53:36.057Z,1.20
2023-05-05T14:56:08.077Z,1.00
2023-05-05T14:58:39.668Z,1.30
2023-05-05T15:01:11.335Z,1.30
2023-05-05T15:03:42.968Z,1.20
2023-05-05T15:06:14.370Z,1.00
2023-05-05T15:11:15.554Z,1.20
2023-05-05T15:16:16.876Z,1.20
2023-05-05T15:18:48.394Z,1.30
2023-05-05T15:21:20.131Z,1.10
2023-05-05T15:23:51.748Z,1.10
2023-05-05T15:26:24.118Z,1.10
2023-05-05T15:28:55.800Z,1.10
2023-05-05T15:31:27.439Z,1.50
2023-05-05T15:33:58.919Z,1.00
2023-05-05T15:36:30.617Z,0.90
2023-05-05T15:39:02.069Z,1.50
2023-05-05T15:44:05.049Z,0.80
2023-05-05T15:46:36.680Z,1.30
2023-05-05T15:49:08.428Z,1.00
2023-05-05T15:51:40.166Z,1.40
2023-05-05T15:54:11.789Z,1.10
2023-05-05T15:56:43.201Z,1.10
2023-05-05T15:59:15.009Z,1.10
2023-05-05T16:01:46.657Z,0.80
2023-05-05T16:04:19.086Z,1.10
2023-05-05T16:06:51.378Z,1.30
2023-05-05T16:09:22.811Z,1.10
2023-05-05T16:14:24.391Z,1.10
2023-05-05T16:16:55.958Z,1.20
2023-05-05T16:19:29.192Z,1.30
2023-05-05T16:22:00.937Z,1.90
2023-05-05T16:24:32.394Z,1.50
2023-05-05T16:29:34.290Z,1.50
2023-05-05T16:32:06.330Z,2.70
2023-05-05T16:34:38.077Z,2.70
2023-05-05T16:37:10.111Z,5.20
2023-05-05T16:39:41.778Z,5.80
2023-05-05T16:44:43.469Z,2.50
2023-05-05T16:47:15.511Z,3.00
2023-05-05T16:49:47.264Z,3.00
2023-05-05T16:52:18.815Z,2.90
2023-05-05T16:54:55.721Z,2.40
2023-05-05T16:57:27.223Z,2.00
2023-05-05T16:59:59.760Z,2.40
2023-05-05T17:02:31.323Z,2.40
2023-05-05T17:05:02.926Z,2.80
2023-05-05T17:10:04.464Z,2.70
2023-05-05T17:15:06.459Z,2.80
2023-05-05T17:17:38.307Z,2.70
2023-05-05T17:20:12.262Z,3.50
2023-05-05T17:22:46.668Z,3.10
2023-05-05T17:25:18.282Z,2.90
2023-05-05T17:27:49.955Z,3.00
2023-05-05T17:30:21.477Z,3.00
2023-05-05T17:35:22.977Z,4.70
2023-05-05T17:37:54.343Z,4.60
2023-05-05T17:40:26.126Z,5.60
2023-05-05T17:42:57.764Z,4.40
2023-05-05T17:45:29.259Z,3.30
2023-05-05T17:48:00.840Z,3.20
2023-05-05T17:50:32.356Z,3.10
2023-05-05T17:53:04.789Z,3.10
2023-05-05T17:55:36.143Z,3.10
2023-05-05T17:58:07.726Z,2.90
2023-05-05T18:00:39.388Z,3.60
2023-05-05T18:03:11.124Z,3.50
2023-05-05T18:05:43.004Z,3.30
2023-05-05T18:08:14.358Z,3.20
2023-05-05T18:10:45.707Z,3.20
2023-05-05T18:13:17.221Z,3.10
2023-05-05T18:15:48.675Z,2.80
2023-05-05T18:18:20.218Z,2.80
2023-05-05T18:20:51.656Z,3.10
2023-05-05T18:23:23.507Z,2.40
2023-05-05T18:25:54.938Z,2.70
2023-05-05T18:28:26.429Z,2.90
2023-05-05T18:30:57.918Z,2.50
2023-05-05T18:33:29.481Z,2.30
2023-05-05T18:36:01.375Z,2.70
2023-05-05T18:38:33.778Z,2.60
2023-05-05T18:41:05.571Z,2.70
2023-05-05T18:43:37.054Z,3.00
2023-05-05T18:46:08.471Z,3.10
2023-05-05T18:48:39.786Z,2.90
2023-05-05T18:51:11.404Z,2.80
2023-05-05T18:56:13.652Z,3.20
2023-05-05T18:58:45.016Z,3.30
2023-05-05T19:01:16.689Z,3.30
2023-05-05T19:06:20.899Z,3.30
2023-05-05T19:08:52.284Z,3.30
2023-05-05T19:11:23.686Z,3.20
2023-05-05T19:13:55.381Z,3.10
2023-05-05T19:16:27.817Z,3.20
2023-05-05T19:19:01.063Z,3.10
2023-05-05T19:21:32.427Z,3.70
2023-05-05T19:24:04.149Z,3.30
2023-05-05T19:26:35.371Z,3.30
2023-05-05T19:29:06.772Z,3.40
2023-05-05T19:31:38.389Z,3.80
2023-05-05T19:34:10.164Z,5.20
2023-05-05T19:39:13.047Z,6.10
2023-05-05T19:41:45.082Z,6.20
2023-05-05T19:44:16.700Z,5.00
2023-05-05T19:49:18.355Z,5.60
2023-05-05T19:51:53.350Z,6.30
2023-05-05T19:54:26.778Z,4.60
2023-05-05T19:56:58.468Z,5.00
2023-05-05T20:02:00.752Z,5.20
2023-05-05T20:04:32.619Z,6.20
2023-05-05T20:07:05.257Z,5.50
2023-05-05T20:09:37.968Z,5.20
2023-05-05T20:12:11.319Z,6.30
2023-05-05T20:14:42.970Z,5.70
2023-05-05T20:19:44.910Z,5.80
2023-05-05T20:22:16.573Z,5.80
2023-05-05T20:24:48.537Z,6.40
2023-05-05T20:27:21.151Z,5.80
2023-05-05T20:29:54.311Z,5.60
2023-05-05T20:32:26.077Z,6.00
2023-05-05T20:34:57.570Z,5.80
2023-05-05T20:37:29.440Z,5.50
2023-05-05T20:40:01.689Z,5.50
2023-05-05T20:42:33.083Z,6.10
2023-05-05T20:45:05.092Z,5.30
2023-05-05T20:47:36.496Z,5.70
2023-05-05T20:50:10.317Z,6.00
2023-05-05T20:52:42.337Z,5.70
2023-05-05T20:55:13.755Z,5.80
2023-05-05T20:57:45.254Z,5.50
2023-05-05T21:00:17.291Z,5.40
2023-05-05T21:02:48.817Z,5.40
2023-05-05T21:07:50.164Z,6.20
2023-05-05T21:10:21.864Z,5.30
2023-05-05T21:12:53.456Z,5.60
2023-05-05T21:17:54.664Z,5.60
2023-05-05T21:22:56.544Z,4.60
2023-05-05T21:25:28.788Z,5.30
2023-05-05T21:28:01.046Z,6.00
2023-05-05T21:30:33.058Z,5.10
2023-05-05T21:33:04.663Z,5.20
2023-05-05T21:35:36.289Z,5.20
2023-05-05T21:38:07.652Z,4.90
2023-05-05T21:40:39.177Z,5.00
2023-05-05T21:43:10.561Z,5.50
2023-05-05T21:45:42.240Z,5.30
2023-05-05T21:48:13.599Z,4.30
2023-05-05T21:50:46.282Z,4.20
2023-05-05T21:53:17.650Z,5.30
2023-05-05T21:55:48.971Z,4.40
2023-05-05T21:58:20.510Z,4.40
2023-05-05T22:00:53.489Z,3.80
2023-05-05T22:03:26.333Z,4.20
2023-05-05T22:05:57.951Z,4.30
2023-05-05T22:08:29.700Z,3.90
2023-05-05T22:13:31.082Z,4.10
2023-05-05T22:16:02.521Z,3.60
2023-05-05T22:18:34.000Z,3.80
2023-05-05T22:21:06.319Z,4.30
2023-05-05T22:23:39.388Z,3.70
2023-05-05T22:26:11.025Z,4.60
2023-05-05T22:28:42.899Z,3.80
2023-05-05T22:31:14.410Z,4.00
2023-05-05T22:33:45.915Z,4.00
2023-05-05T22:36:17.594Z,3.60
2023-05-05T22:38:48.960Z,3.70
2023-05-05T22:41:21.521Z,3.70
2023-05-05T22:43:53.077Z,4.30
2023-05-05T22:46:24.591Z,4.00
2023-05-05T22:51:25.892Z,3.90
2023-05-05T22:53:57.241Z,3.60
2023-05-05T22:56:29.057Z,3.50
2023-05-05T22:59:00.755Z,4.00
2023-05-05T23:04:02.494Z,3.90
2023-05-05T23:06:34.014Z,3.90
2023-05-05T23:09:05.429Z,3.60
2023-05-05T23:11:36.808Z,3.50
2023-05-05T23:14:08.538Z,3.60
2023-05-05T23:16:40.152Z,3.00
2023-05-05T23:19:11.845Z,4.30
2023-05-05T23:21:52.737Z,3.60
2023-05-05T23:24:25.391Z,3.10
2023-05-05T23:29:26.669Z,3.60
2023-05-05T23:31:58.305Z,3.50
2023-05-05T23:34:29.779Z,3.50
2023-05-05T23:37:01.205Z,3.60
2023-05-05T23:39:34.291Z,3.40
2023-05-05T23:42:05.854Z,3.50
2023-05-05T23:44:37.164Z,3.90
2023-05-05T23:49:38.819Z,3.50
2023-05-05T23:52:10.364Z,3.10
2023-05-05T23:54:41.614Z,3.40
2023-05-05T23:57:13.033Z,3.30
2023-05-05T23:59:44.936Z,3.40
